Stations météo

réclame
Mon MeteoGroup
Hoek van Holland, Pays-Bas (6330): Température de l'air & dewpoint: 13.07.2018 23:00:00 - 19.07.2018 23:00:00 (CEST)Hoek van Holland, Pays-Bas (6330): Température de l'air 5cm: 13.07.2018 23:00:00 - 19.07.2018 23:00:00 (CEST)Hoek van Holland, Pays-Bas (6330): Vitesse du vent & gusts: 13.07.2018 23:00:00 - 19.07.2018 23:00:00 (CEST)Hoek van Holland, Pays-Bas (6330): Direction du vent: 13.07.2018 23:00:00 - 19.07.2018 23:00:00 (CEST)Hoek van Holland, Pays-Bas (6330): reduced air pressure: 13.07.2018 23:00:00 - 19.07.2018 23:00:00 (CEST)Hoek van Holland, Pays-Bas (6330): Quantités de précipitations: 13.07.2018 23:00:00 - 19.07.2018 23:00:00 (CEST)
Date & Time tt [°C] td [°C] tt 5cm [°C] ff [km/h] ff [knt] fx [km/h] fx [knt] dd ppp [hPa] rr [mm]
19.07.2018 23:00:00 17,7 15,4 17,2 22 12 - - NNE 1017,8 -
19.07.2018 22:00:00 18,0 15,2 17,7 22 12 29 16 N 1018,1 0,0
19.07.2018 21:00:00 18,8 14,6 18,8 25 14 32 18 N 1018,2 0,0
19.07.2018 20:00:00 19,4 14,9 20,0 29 16 32 18 N 1018,1 0,0
19.07.2018 19:00:00 20,3 15,0 21,9 25 14 29 16 N 1018,4 0,0
19.07.2018 18:00:00 21,5 15,4 23,6 22 12 29 16 N 1018,6 0,0
19.07.2018 17:00:00 20,6 15,9 22,4 22 12 25 14 N 1019,2 0,0
19.07.2018 16:00:00 21,2 15,8 23,3 18 10 22 12 N 1019,6 0,0
19.07.2018 15:00:00 21,9 14,8 24,5 18 10 25 14 N 1019,4 0,0
19.07.2018 14:00:00 22,0 15,7 24,6 18 10 22 12 N 1019,4 0,0
19.07.2018 13:00:00 21,5 15,9 24,7 18 10 22 12 N 1019,6 0,0
19.07.2018 12:00:00 21,7 16,1 24,4 18 10 18 10 N 1019,6 0,0
19.07.2018 11:00:00 20,5 15,8 23,0 18 10 22 12 N 1019,6 0,0
19.07.2018 10:00:00 19,8 16,5 21,4 18 10 22 12 N 1019,7 0,0
19.07.2018 09:00:00 19,2 17,1 19,9 18 10 22 12 N 1019,5 0,0
19.07.2018 08:00:00 18,2 17,0 18,0 18 10 22 12 N 1019,3 0,0
19.07.2018 07:00:00 17,0 16,6 16,3 14 8 18 10 N 1019,2 0,0
19.07.2018 06:00:00 16,3 16,1 14,9 11 6 14 8 N 1019,1 0,0
19.07.2018 05:00:00 16,3 16,2 15,3 14 8 14 8 N 1019,3 0,0
19.07.2018 04:00:00 16,5 16,4 15,7 14 8 14 8 N 1019,3 0,0
19.07.2018 03:00:00 16,2 15,7 14,2 14 8 18 10 N 1019,5 0,0
19.07.2018 02:00:00 15,6 14,7 12,2 14 8 14 8 N 1019,6 0,0
19.07.2018 01:00:00 15,7 14,0 12,6 11 6 14 8 NNE 1019,5 0,0
19.07.2018 00:00:00 16,4 14,2 14,6 11 6 18 10 NNE 1019,3 0,0
18.07.2018 23:00:00 16,8 14,1 16,2 14 8 18 10 NNE 1019,4 0,0
18.07.2018 22:00:00 17,7 14,1 17,3 11 6 14 8 N 1019,2 0,0
18.07.2018 21:00:00 19,4 13,9 19,5 11 6 14 8 NNW 1019,2 0,0
18.07.2018 20:00:00 20,7 13,3 21,3 11 6 14 8 NNW 1019,2 0,0
18.07.2018 19:00:00 20,9 13,2 22,4 14 8 18 10 NW 1019,2 0,0
18.07.2018 18:00:00 21,5 14,2 23,4 18 10 22 12 NW 1019,3 0,0
18.07.2018 17:00:00 21,8 13,7 24,1 18 10 22 12 NW 1019,3 0,0
18.07.2018 16:00:00 22,0 13,9 24,2 22 12 25 14 NW 1019,2 0,0
18.07.2018 15:00:00 22,8 14,3 24,7 18 10 25 14 WNW 1019,2 0,0
18.07.2018 14:00:00 22,2 15,8 24,5 18 10 22 12 W 1019,2 0,0
18.07.2018 13:00:00 22,7 15,5 24,9 22 12 25 14 W 1019,1 0,0
18.07.2018 12:00:00 21,8 14,8 23,5 14 8 22 12 WSW 1019,0 0,0
18.07.2018 11:00:00 21,5 14,7 23,0 14 8 22 12 SW 1018,8 0,0
18.07.2018 10:00:00 20,9 14,9 22,2 14 8 22 12 SW 1018,8 0,0
18.07.2018 09:00:00 19,6 15,8 20,6 14 8 22 12 SSW 1018,5 0,0
18.07.2018 08:00:00 18,3 15,2 18,2 14 8 18 10 SSW 1018,3 0,0
18.07.2018 07:00:00 16,6 14,3 16,0 14 8 22 12 SSW 1018,0 0,0
18.07.2018 06:00:00 15,3 13,7 14,8 18 10 22 12 SSW 1017,9 0,0
18.07.2018 05:00:00 15,7 13,3 15,4 18 10 25 14 SSW 1017,8 0,0
18.07.2018 04:00:00 16,4 14,6 15,9 18 10 25 14 SSW 1017,8 0,0
18.07.2018 03:00:00 15,7 13,9 13,9 14 8 18 10 SSW 1017,9 0,0
18.07.2018 02:00:00 15,8 14,1 13,6 11 6 14 8 SSW 1017,8 0,0
18.07.2018 01:00:00 16,2 13,8 14,5 11 6 14 8 SSW 1017,9 0,0
18.07.2018 00:00:00 16,3 13,6 14,8 11 6 14 8 SW 1017,9 0,0
17.07.2018 23:00:00 16,6 13,2 14,9 7 4 14 8 SW 1017,9 0,0
17.07.2018 22:00:00 17,9 13,4 17,6 11 6 22 12 WSW 1017,6 0,0
17.07.2018 21:00:00 19,5 13,6 19,3 18 10 29 16 W 1017,3 0,0
17.07.2018 20:00:00 20,5 12,9 21,2 25 14 36 19 W 1017,0 0,0
17.07.2018 19:00:00 21,1 13,2 22,5 29 16 36 19 WSW 1016,9 0,0
17.07.2018 18:00:00 21,5 13,1 23,3 29 16 36 19 W 1016,8 0,0
17.07.2018 17:00:00 21,2 13,4 23,1 29 16 40 21 W 1016,7 0,0
17.07.2018 16:00:00 21,5 13,0 22,3 29 16 40 21 W 1016,6 0,0
17.07.2018 15:00:00 21,2 14,0 23,0 29 16 40 21 W 1016,4 0,0
17.07.2018 14:00:00 22,1 14,0 24,2 29 16 43 23 W 1016,1 0,0
17.07.2018 13:00:00 21,6 14,4 22,9 25 14 40 21 WSW 1016,0 0,0
17.07.2018 12:00:00 21,8 14,6 24,0 29 16 43 23 W 1015,4 0,0
17.07.2018 11:00:00 21,9 14,3 23,8 29 16 36 19 WSW 1014,8 0,0
17.07.2018 10:00:00 21,5 15,6 22,8 29 16 36 19 WSW 1014,3 0,0
17.07.2018 09:00:00 20,7 15,8 21,6 29 16 36 19 WSW 1013,8 0,0
17.07.2018 08:00:00 19,9 16,0 20,3 25 14 32 18 WSW 1013,5 0,0
17.07.2018 07:00:00 18,9 16,5 18,7 18 10 36 19 SW 1013,1 0,0
17.07.2018 06:00:00 19,1 14,9 18,9 25 14 36 19 SW 1012,8 0,0
17.07.2018 05:00:00 19,6 14,2 19,3 29 16 36 19 SW 1012,6 0,0
17.07.2018 04:00:00 20,1 14,7 19,9 22 12 29 16 SW 1012,8 0,0
17.07.2018 03:00:00 20,2 13,0 19,7 14 8 25 14 SW 1013,0 0,0
17.07.2018 02:00:00 18,3 15,3 16,7 11 6 14 8 SW 1013,3 0,0
17.07.2018 01:00:00 19,8 15,1 18,9 7 4 18 10 W 1013,4 0,0
17.07.2018 00:00:00 21,4 14,5 21,3 14 8 22 12 S 1013,5 0,0
16.07.2018 23:00:00 22,1 15,3 22,2 22 12 36 19 S 1013,4 0,0
16.07.2018 22:00:00 23,2 13,8 22,4 11 6 18 10 NE 1012,7 0,0
16.07.2018 21:00:00 25,3 11,2 25,6 18 10 22 12 NE 1012,2 0,0
16.07.2018 20:00:00 27,3 10,9 28,1 18 10 22 12 NE 1012,0 0,0
16.07.2018 19:00:00 26,7 10,7 28,2 18 10 22 12 NNE 1011,9 0,0
16.07.2018 18:00:00 27,2 12,1 29,4 18 10 22 12 NNE 1012,3 0,0
16.07.2018 17:00:00 27,3 12,2 30,2 18 10 18 10 NNE 1012,5 0,0
16.07.2018 16:00:00 27,1 11,7 29,5 18 10 18 10 NNE 1012,9 0,0
16.07.2018 15:00:00 27,1 15,1 30,3 18 10 18 10 NNW 1013,1 0,0
16.07.2018 14:00:00 28,7 10,9 30,9 14 8 14 8 NNW 1013,4 0,0
16.07.2018 13:00:00 30,0 8,7 32,5 4 2 7 4 E 1013,6 0,0
16.07.2018 12:00:00 29,5 9,2 31,2 4 2 11 6 SSE 1013,6 0,0
16.07.2018 11:00:00 28,5 10,1 30,0 14 8 18 10 SE 1013,9 0,0
16.07.2018 10:00:00 26,4 11,2 27,6 18 10 22 12 SE 1013,9 0,0
16.07.2018 09:00:00 24,4 12,6 25,2 18 10 25 14 SE 1014,1 0,0
16.07.2018 08:00:00 21,4 13,0 21,0 18 10 25 14 SSE 1014,1 0,0
16.07.2018 07:00:00 18,6 12,9 16,9 18 10 25 14 SE 1014,1 0,0
16.07.2018 06:00:00 16,8 13,8 16,0 14 8 18 10 ESE 1014,1 0,0
16.07.2018 05:00:00 16,5 14,5 15,7 11 6 14 8 ESE 1014,1 0,0
16.07.2018 04:00:00 17,2 15,0 16,6 14 8 18 10 E 1014,3 0,0
16.07.2018 03:00:00 17,6 14,8 17,0 14 8 18 10 E 1014,4 0,0
16.07.2018 02:00:00 17,6 13,8 16,2 14 8 18 10 ESE 1014,7 0,0
16.07.2018 01:00:00 17,8 13,9 14,6 11 6 14 8 ESE 1015,0 0,0
16.07.2018 00:00:00 17,4 15,5 15,3 7 4 11 6 NE 1015,1 0,0
15.07.2018 23:00:00 19,2 16,6 18,2 11 6 14 8 NNE 1015,3 0,0
15.07.2018 22:00:00 20,1 17,0 20,1 14 8 14 8 NNE 1015,3 0,0
15.07.2018 21:00:00 21,5 16,7 21,7 14 8 14 8 NNE 1015,2 0,0
15.07.2018 20:00:00 22,2 16,4 22,8 14 8 18 10 N 1015,2 0,0
15.07.2018 19:00:00 22,9 16,3 24,9 14 8 22 12 N 1015,3 0,0
15.07.2018 18:00:00 23,6 16,3 26,4 18 10 22 12 N 1015,8 0,0
15.07.2018 17:00:00 23,9 15,7 26,6 18 10 22 12 N 1016,1 0,0
15.07.2018 16:00:00 24,8 15,1 27,6 22 12 25 14 N 1016,3 0,0
15.07.2018 15:00:00 25,5 14,1 28,3 22 12 25 14 N 1016,7 0,0
15.07.2018 14:00:00 24,7 14,7 27,9 18 10 22 12 N 1017,2 0,0
15.07.2018 13:00:00 24,4 13,6 26,6 18 10 22 12 N 1017,6 0,0
15.07.2018 12:00:00 24,0 14,8 26,5 14 8 18 10 N 1017,8 0,0
15.07.2018 11:00:00 25,4 12,8 27,7 7 4 11 6 SSE 1017,9 0,0
15.07.2018 10:00:00 23,3 14,1 25,1 11 6 14 8 ESE 1018,1 0,0
15.07.2018 09:00:00 20,9 14,1 21,8 14 8 14 8 ESE 1018,1 0,0
15.07.2018 08:00:00 18,4 13,4 18,1 18 10 22 12 ESE 1018,0 0,0
15.07.2018 07:00:00 16,1 12,9 15,3 11 6 14 8 E 1017,8 0,0
15.07.2018 06:00:00 14,8 12,7 14,4 14 8 18 10 ESE 1017,8 0,0
15.07.2018 05:00:00 15,4 12,9 14,8 18 10 22 12 E 1018,2 0,0
15.07.2018 04:00:00 15,4 13,4 14,9 18 10 22 12 E 1018,4 0,0
15.07.2018 03:00:00 15,8 13,7 15,0 7 4 14 8 E 1018,8 0,0
15.07.2018 02:00:00 16,9 14,2 16,4 7 4 14 8 E 1018,9 0,0
15.07.2018 01:00:00 17,4 14,1 16,8 14 8 18 10 E 1019,0 0,0
15.07.2018 00:00:00 17,3 13,4 16,3 11 6 14 8 E 1019,0 0,0
14.07.2018 23:00:00 17,1 15,2 15,6 11 6 22 12 ENE 1019,1 0,0
14.07.2018 22:00:00 17,8 15,4 17,6 25 14 25 14 NE 1019,1 0,0
14.07.2018 21:00:00 19,0 15,4 19,0 25 14 29 16 NNE 1019,2 0,0
14.07.2018 20:00:00 19,9 15,1 21,1 25 14 32 18 NNE 1019,4 0,0
14.07.2018 19:00:00 20,8 15,0 22,4 22 12 25 14 NNE 1019,8 0,0
14.07.2018 18:00:00 21,0 15,1 22,9 25 14 29 16 N 1020,0 0,0
14.07.2018 17:00:00 21,1 14,9 23,4 25 14 29 16 N 1020,1 0,0
14.07.2018 16:00:00 21,3 14,7 24,1 18 10 25 14 N 1020,5 0,0
14.07.2018 15:00:00 20,6 14,4 23,7 22 12 29 16 N 1020,9 0,0
14.07.2018 14:00:00 21,1 14,2 23,7 25 14 25 14 N 1021,3 0,0
14.07.2018 13:00:00 20,5 14,1 23,0 18 10 22 12 N 1021,4 0,0
14.07.2018 12:00:00 19,8 13,5 22,6 18 10 22 12 N 1021,7 0,0
14.07.2018 11:00:00 19,6 13,5 22,0 14 8 18 10 N 1021,8 0,0
14.07.2018 10:00:00 19,0 13,4 21,1 14 8 18 10 NNE 1021,8 0,0
14.07.2018 09:00:00 18,6 13,3 19,9 11 6 14 8 NE 1022,0 0,0
14.07.2018 08:00:00 17,3 13,2 16,8 11 6 14 8 ENE 1021,6 0,0
14.07.2018 07:00:00 14,7 12,8 12,4 7 4 11 6 ENE 1021,5 0,0
14.07.2018 06:00:00 13,0 12,1 11,6 11 6 14 8 ENE 1021,5 0,0
14.07.2018 05:00:00 12,8 11,8 11,5 14 8 18 10 ENE 1021,7 0,0
14.07.2018 04:00:00 13,5 12,0 12,9 14 8 22 12 NE 1021,7 0,0
14.07.2018 03:00:00 13,8 12,0 13,2 18 10 22 12 NE 1021,7 0,0
14.07.2018 02:00:00 14,3 12,2 13,6 18 10 22 12 NE 1021,9 0,0
14.07.2018 01:00:00 15,2 12,6 14,8 22 12 32 18 NE 1021,8 0,0
14.07.2018 00:00:00 16,0 13,3 15,7 32 18 36 19 NNE 1021,7 0,0
13.07.2018 23:00:00 16,3 13,4 16,1 32 18 36 19 NNE 1021,7 0,0

tt = Température de l'air
td = dewpoint
tt 5cm = Température de l'air 5cm
ff = Vitesse du vent
fx = gusts
dd = Direction du vent
ppp = reduced air pressure
rr = Quantités de précipitations

stations d'obs. à proximité